Downsville, New York
Current Conditions -  °F | °C
As of 7:55 PM on Monday 24 Nov 2014 (Local Time) from KMSV Reporting Station
Clear Clear  
Wind Chill: 57°   Ceiling: Unl
Heat Index: 57°   Visibility: 10mi
Dew Point: 52°   Wind: 12mph
Humidity: 82%   Direction: 210°SSW
Pressure: 29.66"   Gusts: 20mph
Location:  42.08°N, 75°W
Report Text: KMSV 250055Z AUTO 21010G17KT 180V240 10SM CLR 14/11 A2966 RMK AO1
Loading
Personal Weather Stations






























Interactive Weather Map New forecast layout! Learn more

10-Day Weather Forecast

Advertisements
Track Severe Weather on mobile